createdAt,value
2017-09-19T00:00:50.531Z,2.80
2017-09-19T00:03:18.153Z,2.70
2017-09-19T00:05:45.739Z,2.78
2017-09-19T00:08:13.371Z,2.78
2017-09-19T00:10:40.962Z,2.85
2017-09-19T00:13:08.529Z,3.10
2017-09-19T00:15:36.141Z,3.47
2017-09-19T00:18:03.766Z,3.22
2017-09-19T00:20:31.326Z,2.92
2017-09-19T00:22:58.950Z,2.78
2017-09-19T00:25:26.540Z,2.85
2017-09-19T00:27:54.106Z,3.20
2017-09-19T00:30:21.716Z,3.50
2017-09-19T00:32:49.281Z,3.33
2017-09-19T00:35:16.878Z,3.50
2017-09-19T00:37:44.460Z,3.17
2017-09-19T00:40:12.084Z,2.80
2017-09-19T00:42:39.648Z,3.70
2017-09-19T00:45:07.245Z,3.45
2017-09-19T00:47:34.799Z,3.53
2017-09-19T00:50:02.495Z,3.37
2017-09-19T00:52:30.057Z,3.70
2017-09-19T00:54:57.662Z,3.22
2017-09-19T00:57:25.271Z,3.67
2017-09-19T00:59:52.850Z,3.30
2017-09-19T01:02:20.470Z,3.15
2017-09-19T01:04:48.050Z,2.85
2017-09-19T01:07:15.622Z,3.15
2017-09-19T01:09:43.241Z,3.37
2017-09-19T01:12:10.891Z,3.75
2017-09-19T01:14:38.445Z,3.15
2017-09-19T01:17:06.026Z,3.05
2017-09-19T01:19:33.675Z,3.17
2017-09-19T01:22:01.277Z,3.30
2017-09-19T01:24:28.911Z,3.17
2017-09-19T01:26:56.490Z,3.00
2017-09-19T01:29:24.882Z,3.15
2017-09-19T01:31:52.469Z,2.50
2017-09-19T01:34:20.050Z,2.92
2017-09-19T01:36:47.658Z,3.45
2017-09-19T01:39:15.259Z,3.50
2017-09-19T01:41:42.822Z,3.92
2017-09-19T01:44:10.434Z,2.70
2017-09-19T01:46:38.786Z,2.80
2017-09-19T01:49:06.398Z,2.87
2017-09-19T01:51:33.969Z,2.70
2017-09-19T01:54:01.530Z,4.00
2017-09-19T01:56:29.131Z,3.47
2017-09-19T01:58:56.711Z,2.65
2017-09-19T02:01:24.344Z,2.92
2017-09-19T02:03:51.937Z,3.12
2017-09-19T02:06:20.370Z,3.15
2017-09-19T02:08:47.972Z,3.20
2017-09-19T02:11:16.330Z,3.67
2017-09-19T02:13:43.971Z,3.10
2017-09-19T02:16:11.553Z,2.90
2017-09-19T02:18:39.145Z,2.78
2017-09-19T02:21:06.776Z,3.47
2017-09-19T02:23:34.397Z,2.90
2017-09-19T02:26:01.974Z,3.42
2017-09-19T02:28:29.603Z,3.15
2017-09-19T02:30:57.224Z,3.40
2017-09-19T02:33:24.802Z,3.22
2017-09-19T02:35:52.390Z,3.30
2017-09-19T02:38:20.014Z,3.15
2017-09-19T02:40:47.641Z,3.15
2017-09-19T02:43:15.238Z,3.47
2017-09-19T02:45:42.869Z,3.40
2017-09-19T02:48:10.470Z,3.10
2017-09-19T02:50:38.811Z,3.03
2017-09-19T02:53:06.439Z,3.45
2017-09-19T02:55:34.074Z,4.10
2017-09-19T02:58:02.423Z,3.65
2017-09-19T03:00:30.053Z,3.47
2017-09-19T03:02:57.617Z,3.42
2017-09-19T03:05:25.199Z,3.90
2017-09-19T03:07:52.840Z,3.65
2017-09-19T03:10:20.412Z,3.47
2017-09-19T03:12:48.039Z,3.55
2017-09-19T03:15:15.674Z,3.28
2017-09-19T03:17:43.246Z,3.87
2017-09-19T03:20:11.602Z,3.40
2017-09-19T03:22:39.224Z,3.58
2017-09-19T03:25:06.799Z,3.15
2017-09-19T03:27:34.434Z,3.28
2017-09-19T03:30:02.062Z,3.28
2017-09-19T03:32:29.724Z,3.60
2017-09-19T03:34:58.096Z,3.92
2017-09-19T03:37:25.725Z,3.75
2017-09-19T03:39:53.339Z,3.95
2017-09-19T03:42:21.686Z,3.50
2017-09-19T03:44:49.301Z,3.55
2017-09-19T03:47:16.869Z,4.00
2017-09-19T03:49:44.473Z,3.92
2017-09-19T03:52:12.091Z,3.42
2017-09-19T03:54:39.705Z,3.78
2017-09-19T03:57:07.358Z,3.90
2017-09-19T03:59:34.996Z,3.12
2017-09-19T04:02:02.596Z,4.10
2017-09-19T04:04:30.985Z,3.60
2017-09-19T04:06:59.376Z,3.45
2017-09-19T04:09:26.946Z,3.25
2017-09-19T04:11:54.555Z,4.45
2017-09-19T04:14:22.126Z,5.15
2017-09-19T04:16:49.729Z,4.20
2017-09-19T04:19:17.347Z,3.75
2017-09-19T04:21:44.937Z,3.72
2017-09-19T04:24:12.561Z,3.95
2017-09-19T04:26:40.158Z,4.50
2017-09-19T04:29:08.549Z,3.80
2017-09-19T04:31:36.111Z,4.82
2017-09-19T04:34:03.685Z,4.60
2017-09-19T04:36:31.306Z,3.92
2017-09-19T04:38:58.950Z,4.60
2017-09-19T04:41:26.525Z,4.60
2017-09-19T04:43:54.192Z,4.53
2017-09-19T04:46:21.905Z,4.80
2017-09-19T04:48:49.678Z,4.95
2017-09-19T04:51:17.443Z,5.10
2017-09-19T04:53:45.366Z,5.35
2017-09-19T04:56:13.246Z,5.95
2017-09-19T04:58:41.135Z,5.20
2017-09-19T05:01:09.497Z,5.87
2017-09-19T05:03:37.104Z,4.25
2017-09-19T05:06:04.881Z,5.50
2017-09-19T05:08:32.782Z,5.37
2017-09-19T05:11:00.627Z,4.50
2017-09-19T05:13:28.445Z,4.87
2017-09-19T05:15:56.220Z,5.05
2017-09-19T05:18:23.813Z,5.35
2017-09-19T05:20:51.666Z,5.22
2017-09-19T05:23:19.524Z,5.07
2017-09-19T05:25:47.142Z,4.68
2017-09-19T05:28:14.779Z,4.55
2017-09-19T05:30:42.474Z,4.22
2017-09-19T05:33:10.224Z,5.03
2017-09-19T05:35:37.939Z,4.82
2017-09-19T05:38:05.665Z,4.30
2017-09-19T05:40:33.293Z,4.85
2017-09-19T05:43:01.002Z,4.75
2017-09-19T05:45:29.074Z,4.20
2017-09-19T05:47:56.730Z,4.53
2017-09-19T05:50:24.373Z,4.20
2017-09-19T05:52:52.753Z,4.65
2017-09-19T05:55:20.374Z,4.40
2017-09-19T05:57:48.040Z,4.35
2017-09-19T06:00:15.657Z,3.78
2017-09-19T06:02:43.354Z,4.45
2017-09-19T06:05:10.985Z,4.53
2017-09-19T06:07:38.558Z,4.62
2017-09-19T06:10:06.162Z,5.00
2017-09-19T06:12:33.791Z,4.53
2017-09-19T06:15:01.370Z,4.20
2017-09-19T06:17:28.948Z,5.10
2017-09-19T06:19:56.572Z,4.25
2017-09-19T06:22:24.147Z,4.32
2017-09-19T06:24:51.801Z,5.00
2017-09-19T06:27:19.433Z,4.85
2017-09-19T06:29:47.003Z,5.65
2017-09-19T06:32:14.610Z,4.87
2017-09-19T06:34:42.237Z,5.00
2017-09-19T06:37:09.818Z,4.45
2017-09-19T06:39:37.449Z,4.05
2017-09-19T06:42:05.379Z,3.65
2017-09-19T06:44:33.719Z,4.00
2017-09-19T06:47:01.307Z,3.90
2017-09-19T06:49:28.968Z,3.87
2017-09-19T06:51:56.597Z,4.15
2017-09-19T06:54:24.207Z,3.70
2017-09-19T06:56:52.901Z,4.80
2017-09-19T06:59:21.278Z,3.97
2017-09-19T07:01:49.642Z,4.60
2017-09-19T07:04:17.215Z,4.80
2017-09-19T07:06:45.674Z,5.60
2017-09-19T07:09:13.248Z,3.95
2017-09-19T07:11:40.805Z,5.05
2017-09-19T07:14:10.217Z,4.45
2017-09-19T07:16:37.910Z,4.05
2017-09-19T07:19:05.486Z,3.97
2017-09-19T07:21:33.068Z,3.80
2017-09-19T07:24:00.674Z,4.40
2017-09-19T07:26:28.458Z,3.95
2017-09-19T07:28:56.107Z,4.18
2017-09-19T07:31:23.767Z,4.57
2017-09-19T07:33:52.115Z,5.40
2017-09-19T07:36:20.471Z,5.10
2017-09-19T07:38:48.073Z,4.12
2017-09-19T07:41:15.751Z,4.43
2017-09-19T07:43:43.923Z,4.82
2017-09-19T07:46:11.987Z,6.10
2017-09-19T07:48:41.466Z,5.07
2017-09-19T07:51:10.431Z,7.25
2017-09-19T07:53:38.987Z,5.78
2017-09-19T07:56:06.612Z,4.35
2017-09-19T07:58:34.198Z,5.68
2017-09-19T08:01:01.833Z,5.12
2017-09-19T08:03:29.519Z,7.80
2017-09-19T08:05:57.242Z,7.68
2017-09-19T08:08:24.826Z,6.45
2017-09-19T08:10:52.462Z,8.05
2017-09-19T08:13:20.052Z,6.82
2017-09-19T08:15:47.661Z,5.18
2017-09-19T08:18:15.227Z,5.37
2017-09-19T08:20:42.834Z,5.75
2017-09-19T08:23:11.193Z,4.80
2017-09-19T08:25:38.814Z,5.35
2017-09-19T08:28:06.534Z,5.78
2017-09-19T08:30:34.321Z,5.82
2017-09-19T08:33:02.816Z,5.07
2017-09-19T08:35:30.986Z,6.20
2017-09-19T08:37:58.740Z,5.93
2017-09-19T08:40:27.132Z,5.72
2017-09-19T08:42:54.749Z,6.50
2017-09-19T08:45:22.323Z,7.78
2017-09-19T08:47:56.718Z,6.87
2017-09-19T08:50:24.752Z,8.80
2017-09-19T08:52:52.385Z,9.43
2017-09-19T08:55:19.984Z,8.23
2017-09-19T08:57:47.598Z,9.80
2017-09-19T09:00:15.250Z,10.50
2017-09-19T09:02:44.703Z,9.65
2017-09-19T09:05:13.400Z,8.90
2017-09-19T09:07:42.147Z,9.15
2017-09-19T09:10:10.887Z,9.38
2017-09-19T09:12:38.993Z,9.57
2017-09-19T09:15:07.791Z,8.50
2017-09-19T09:17:37.309Z,8.60
2017-09-19T09:20:06.758Z,8.00
2017-09-19T09:22:35.419Z,7.62
2017-09-19T09:25:04.340Z,8.75
2017-09-19T09:27:32.678Z,8.75
2017-09-19T09:30:00.776Z,8.68
2017-09-19T09:32:29.560Z,8.63
2017-09-19T09:34:58.511Z,7.95
2017-09-19T09:37:27.463Z,7.32
2017-09-19T09:39:56.381Z,7.68
2017-09-19T09:42:25.090Z,6.10
2017-09-19T09:44:54.516Z,6.90
2017-09-19T09:47:22.153Z,7.35
2017-09-19T09:49:49.892Z,6.65
2017-09-19T09:52:17.481Z,7.03
2017-09-19T09:54:45.085Z,7.32
2017-09-19T09:57:12.658Z,7.03
2017-09-19T09:59:40.246Z,8.35
2017-09-19T10:02:19.912Z,7.50
2017-09-19T10:04:57.477Z,7.20
2017-09-19T10:07:26.312Z,8.45
2017-09-19T10:09:53.870Z,7.60
2017-09-19T10:12:22.268Z,8.80
2017-09-19T10:14:49.975Z,8.48
2017-09-19T10:17:17.945Z,8.88
2017-09-19T10:19:45.571Z,8.35
2017-09-19T10:22:13.345Z,8.27
2017-09-19T10:24:40.952Z,7.85
2017-09-19T10:27:09.300Z,7.70
2017-09-19T10:29:36.901Z,7.97
2017-09-19T10:32:05.362Z,8.30
2017-09-19T10:34:32.923Z,7.35
2017-09-19T10:37:00.546Z,7.22
2017-09-19T10:39:28.128Z,6.72
2017-09-19T10:41:55.763Z,6.65
2017-09-19T10:44:23.342Z,7.40
2017-09-19T10:46:50.913Z,7.72
2017-09-19T10:49:18.509Z,6.15
2017-09-19T10:51:46.083Z,6.40
2017-09-19T10:54:13.714Z,6.47
2017-09-19T10:56:41.348Z,5.57
2017-09-19T10:59:09.010Z,7.18
2017-09-19T11:01:36.610Z,6.72
2017-09-19T11:04:04.227Z,6.50
2017-09-19T11:06:31.838Z,6.95
2017-09-19T11:09:00.162Z,6.28
2017-09-19T11:11:27.938Z,5.87
2017-09-19T11:13:55.523Z,7.43
2017-09-19T11:16:25.958Z,7.82
2017-09-19T11:18:54.427Z,6.18
2017-09-19T11:21:22.146Z,7.30
2017-09-19T11:23:51.788Z,8.63
2017-09-19T11:26:19.353Z,8.60
2017-09-19T11:28:46.896Z,7.70
2017-09-19T11:31:14.489Z,8.00
2017-09-19T11:33:42.054Z,7.50
2017-09-19T11:36:09.681Z,8.18
2017-09-19T11:38:37.556Z,8.32
2017-09-19T11:41:05.190Z,8.82
2017-09-19T11:43:32.885Z,8.27
2017-09-19T11:46:00.675Z,6.50
2017-09-19T11:48:28.277Z,7.10
2017-09-19T11:51:01.907Z,7.25
2017-09-19T11:53:29.774Z,6.18
2017-09-19T11:55:57.445Z,7.40
2017-09-19T11:58:25.065Z,5.93
2017-09-19T12:00:52.688Z,5.90
2017-09-19T12:03:21.258Z,6.05
2017-09-19T12:05:49.677Z,5.72
2017-09-19T12:08:17.528Z,5.82
2017-09-19T12:10:45.975Z,5.95
2017-09-19T12:13:14.136Z,6.60
2017-09-19T12:15:41.765Z,7.20
2017-09-19T12:18:09.339Z,6.80
2017-09-19T12:20:36.969Z,6.07
2017-09-19T12:23:05.354Z,6.30
2017-09-19T12:25:32.929Z,6.10
2017-09-19T12:28:01.334Z,5.27
2017-09-19T12:30:29.673Z,6.30
2017-09-19T12:32:58.022Z,4.60
2017-09-19T12:35:25.648Z,5.00
2017-09-19T12:37:53.999Z,4.90
2017-09-19T12:40:21.606Z,4.40
2017-09-19T12:42:49.211Z,4.73
2017-09-19T12:45:16.839Z,4.27
2017-09-19T12:47:44.485Z,4.80
2017-09-19T12:50:12.062Z,6.00
2017-09-19T12:52:39.634Z,4.83
2017-09-19T12:55:08.647Z,5.70
2017-09-19T12:57:38.541Z,4.60
2017-09-19T13:00:09.733Z,4.47
2017-09-19T13:02:37.960Z,3.75
2017-09-19T13:05:06.446Z,3.50
2017-09-19T13:07:35.495Z,3.00
2017-09-19T13:10:03.083Z,3.58
2017-09-19T13:12:30.721Z,3.60
2017-09-19T13:14:58.332Z,4.57
2017-09-19T13:17:26.721Z,4.22
2017-09-19T13:19:55.072Z,4.80
2017-09-19T13:22:22.842Z,5.43
2017-09-19T13:24:50.913Z,5.30
2017-09-19T13:27:18.527Z,4.50
2017-09-19T13:29:47.820Z,4.70
2017-09-19T13:32:29.090Z,5.80
2017-09-19T13:34:58.256Z,4.32
2017-09-19T13:37:27.496Z,4.45
2017-09-19T13:39:56.209Z,4.15
2017-09-19T13:42:24.837Z,4.72
2017-09-19T13:44:54.130Z,4.90
2017-09-19T13:47:23.383Z,5.30
2017-09-19T13:49:52.112Z,4.50
2017-09-19T13:52:20.732Z,4.75
2017-09-19T13:54:49.096Z,3.95
2017-09-19T13:57:16.722Z,4.32
2017-09-19T13:59:45.838Z,4.40
2017-09-19T14:02:13.412Z,4.72
2017-09-19T14:04:41.810Z,5.00
2017-09-19T14:07:10.435Z,4.90
2017-09-19T14:09:38.835Z,4.85
2017-09-19T14:12:06.476Z,4.00
2017-09-19T14:14:34.098Z,4.40
2017-09-19T14:17:02.454Z,3.95
2017-09-19T14:19:30.021Z,4.47
2017-09-19T14:21:57.626Z,5.40
2017-09-19T14:24:25.221Z,5.05
2017-09-19T14:26:52.891Z,3.92
2017-09-19T14:29:20.487Z,3.37
2017-09-19T14:31:49.156Z,3.92
2017-09-19T14:34:16.745Z,4.15
2017-09-19T14:36:44.377Z,3.50
2017-09-19T14:39:12.052Z,4.00
2017-09-19T14:41:40.405Z,4.05
2017-09-19T14:44:08.040Z,4.05
2017-09-19T14:46:35.716Z,4.68
2017-09-19T14:49:03.345Z,4.37
2017-09-19T14:51:30.965Z,3.60
2017-09-19T14:53:59.531Z,4.68
2017-09-19T14:56:27.158Z,4.78
2017-09-19T14:58:54.769Z,4.35
2017-09-19T15:01:22.378Z,4.50
2017-09-19T15:03:49.986Z,4.60
2017-09-19T15:06:17.600Z,4.60
2017-09-19T15:08:45.234Z,4.22
2017-09-19T15:11:12.792Z,4.25
2017-09-19T15:13:41.178Z,5.10
2017-09-19T15:16:09.558Z,5.47
2017-09-19T15:18:37.894Z,3.90
2017-09-19T15:21:05.488Z,3.87
2017-09-19T15:23:33.149Z,3.90
2017-09-19T15:26:01.505Z,3.72
2017-09-19T15:28:29.081Z,3.80
2017-09-19T15:31:02.649Z,3.87
2017-09-19T15:33:30.312Z,2.60
2017-09-19T15:35:57.903Z,3.10
2017-09-19T15:38:25.553Z,3.17
2017-09-19T15:40:53.219Z,3.00
2017-09-19T15:43:20.786Z,3.70
2017-09-19T15:45:48.860Z,3.40
2017-09-19T15:48:16.507Z,3.80
2017-09-19T15:50:44.271Z,3.70
2017-09-19T15:53:11.923Z,3.85
2017-09-19T15:55:39.548Z,4.70
2017-09-19T15:58:07.278Z,4.18
2017-09-19T16:00:34.916Z,5.32
2017-09-19T16:03:02.534Z,3.95
2017-09-19T16:05:31.037Z,4.18
2017-09-19T16:07:58.796Z,3.87
2017-09-19T16:10:26.370Z,4.55
2017-09-19T16:12:53.984Z,4.32
2017-09-19T16:15:21.670Z,4.00
2017-09-19T16:17:50.053Z,4.43
2017-09-19T16:20:17.702Z,5.00
2017-09-19T16:22:46.093Z,5.47
2017-09-19T16:25:13.713Z,4.20
2017-09-19T16:27:41.274Z,4.87
2017-09-19T16:30:08.846Z,4.45
2017-09-19T16:32:36.453Z,4.30
2017-09-19T16:35:04.007Z,5.57
2017-09-19T16:37:31.577Z,5.65
2017-09-19T16:39:59.254Z,4.37
2017-09-19T16:42:26.856Z,4.50
2017-09-19T16:44:54.457Z,4.60
2017-09-19T16:47:22.019Z,5.62
2017-09-19T16:49:49.583Z,6.40
2017-09-19T16:52:17.194Z,5.12
2017-09-19T16:54:44.773Z,4.85
2017-09-19T16:57:13.114Z,6.30
2017-09-19T16:59:40.726Z,6.70
2017-09-19T17:02:10.074Z,6.00
2017-09-19T17:04:37.641Z,6.15
2017-09-19T17:07:05.240Z,6.00
2017-09-19T17:09:33.579Z,6.87
2017-09-19T17:12:01.153Z,6.30
2017-09-19T17:14:28.763Z,7.10
2017-09-19T17:16:56.377Z,6.30
2017-09-19T17:19:24.142Z,7.65
2017-09-19T17:21:51.786Z,7.43
2017-09-19T17:24:19.387Z,6.97
2017-09-19T17:26:47.754Z,6.70
2017-09-19T17:29:15.317Z,6.72
2017-09-19T17:31:42.927Z,6.65
2017-09-19T17:34:10.535Z,5.57
2017-09-19T17:36:40.500Z,7.20
2017-09-19T17:39:08.114Z,6.32
2017-09-19T17:41:35.703Z,5.95
2017-09-19T17:44:03.318Z,7.45
2017-09-19T17:46:31.016Z,7.03
2017-09-19T17:48:59.340Z,6.75
2017-09-19T17:51:26.923Z,6.68
2017-09-19T17:53:54.490Z,6.00
2017-09-19T17:56:22.081Z,10.05
2017-09-19T17:58:50.448Z,9.20
2017-09-19T18:01:18.871Z,8.88
2017-09-19T18:03:46.441Z,9.35
2017-09-19T18:06:14.046Z,11.10
2017-09-19T18:08:42.423Z,10.40
2017-09-19T18:11:10.765Z,9.10
2017-09-19T18:13:38.314Z,7.28
2017-09-19T18:16:05.918Z,8.20
2017-09-19T18:18:33.557Z,8.70
2017-09-19T18:21:01.110Z,7.93
2017-09-19T18:23:28.673Z,6.70
2017-09-19T18:25:56.269Z,7.07
2017-09-19T18:28:24.607Z,7.95
2017-09-19T18:30:52.202Z,8.32
2017-09-19T18:33:19.771Z,7.85
2017-09-19T18:35:48.134Z,8.00
2017-09-19T18:38:15.686Z,7.47
2017-09-19T18:40:43.293Z,8.85
2017-09-19T18:43:10.862Z,8.38
2017-09-19T18:45:38.422Z,9.05
2017-09-19T18:48:06.018Z,9.05
2017-09-19T18:50:33.575Z,7.80
2017-09-19T18:53:01.170Z,7.95
2017-09-19T18:55:29.533Z,8.10
2017-09-19T18:57:57.138Z,8.13
2017-09-19T19:00:24.738Z,7.25
2017-09-19T19:02:52.286Z,7.68
2017-09-19T19:05:19.886Z,7.68
2017-09-19T19:07:47.482Z,8.98
2017-09-19T19:10:15.038Z,8.77
2017-09-19T19:12:42.632Z,9.35
2017-09-19T19:15:10.247Z,8.07
2017-09-19T19:17:38.573Z,8.35
2017-09-19T19:20:06.179Z,9.80
2017-09-19T19:22:34.519Z,8.85
2017-09-19T19:25:02.150Z,9.52
2017-09-19T19:27:29.724Z,8.13
2017-09-19T19:29:57.296Z,10.15
2017-09-19T19:32:24.899Z,9.43
2017-09-19T19:34:53.265Z,9.50
2017-09-19T19:37:20.834Z,10.57
2017-09-19T19:39:48.428Z,8.65
2017-09-19T19:42:15.986Z,11.45
2017-09-19T19:44:43.597Z,10.25
2017-09-19T19:47:11.230Z,10.02
2017-09-19T19:49:38.804Z,10.32
2017-09-19T19:52:06.366Z,9.55
2017-09-19T19:54:33.962Z,9.35
2017-09-19T19:57:02.300Z,9.15
2017-09-19T19:59:29.896Z,9.23
2017-09-19T20:01:57.460Z,9.00
2017-09-19T20:04:25.050Z,7.80
2017-09-19T20:06:52.647Z,8.75
2017-09-19T20:09:20.197Z,7.50
2017-09-19T20:11:47.758Z,8.50
2017-09-19T20:14:16.126Z,9.45
2017-09-19T20:16:43.673Z,8.80
2017-09-19T20:19:11.258Z,9.32
2017-09-19T20:21:38.845Z,10.27
2017-09-19T20:24:06.445Z,9.27
2017-09-19T20:26:34.070Z,10.30
2017-09-19T20:29:01.646Z,11.27
2017-09-19T20:31:29.991Z,9.35
2017-09-19T20:33:57.589Z,9.77
2017-09-19T20:36:25.937Z,10.05
2017-09-19T20:38:53.529Z,8.45
2017-09-19T20:41:21.141Z,9.07
2017-09-19T20:43:48.703Z,9.00
2017-09-19T20:46:16.273Z,10.00
2017-09-19T20:48:43.872Z,8.90
2017-09-19T20:51:12.253Z,8.32
2017-09-19T20:53:40.582Z,7.60
2017-09-19T20:56:08.142Z,8.00
2017-09-19T20:58:35.747Z,7.70
2017-09-19T21:01:03.364Z,8.80
2017-09-19T21:03:36.536Z,6.85
2017-09-19T21:06:09.781Z,6.60
2017-09-19T21:08:43.037Z,6.70
2017-09-19T21:11:16.385Z,6.12
2017-09-19T21:13:49.572Z,6.97
2017-09-19T21:16:22.838Z,5.45
2017-09-19T21:18:56.087Z,5.90
2017-09-19T21:21:24.419Z,6.10
2017-09-19T21:23:51.987Z,5.53
2017-09-19T21:26:19.594Z,5.53
2017-09-19T21:28:47.145Z,5.35
2017-09-19T21:31:15.502Z,5.37
2017-09-19T21:36:25.054Z,5.45
2017-09-19T21:38:52.676Z,5.25
2017-09-19T21:41:20.229Z,5.70
2017-09-19T21:43:47.848Z,5.18
2017-09-19T21:46:15.418Z,5.80
2017-09-19T21:48:43.039Z,5.50
2017-09-19T21:51:11.376Z,4.45
2017-09-19T21:53:38.992Z,5.95
2017-09-19T21:56:07.312Z,4.97
2017-09-19T21:58:34.910Z,5.50
2017-09-19T22:01:02.483Z,5.75
2017-09-19T22:03:30.905Z,5.32
2017-09-19T22:05:58.473Z,4.70
2017-09-19T22:08:26.081Z,4.10
2017-09-19T22:10:54.470Z,5.20
2017-09-19T22:13:22.849Z,5.03
2017-09-19T22:15:51.190Z,4.30
2017-09-19T22:18:18.858Z,5.05
2017-09-19T22:20:46.486Z,5.95
2017-09-19T22:23:14.056Z,4.93
2017-09-19T22:25:41.614Z,5.32
2017-09-19T22:28:09.232Z,4.78
2017-09-19T22:30:37.556Z,5.50
2017-09-19T22:33:05.161Z,5.60
2017-09-19T22:35:33.531Z,5.53
2017-09-19T22:38:01.141Z,4.70
2017-09-19T22:40:28.721Z,4.57
2017-09-19T22:42:56.305Z,4.65
2017-09-19T22:45:23.917Z,4.18
2017-09-19T22:47:51.502Z,4.45
2017-09-19T22:50:19.094Z,3.60
2017-09-19T22:52:46.669Z,3.80
2017-09-19T22:55:15.065Z,3.87
2017-09-19T22:57:42.643Z,4.28
2017-09-19T23:00:10.204Z,4.25
2017-09-19T23:02:37.817Z,3.83
2017-09-19T23:05:05.398Z,3.30
2017-09-19T23:07:33.744Z,4.10
2017-09-19T23:10:01.359Z,4.35
2017-09-19T23:12:28.932Z,4.25
2017-09-19T23:14:56.566Z,3.40
2017-09-19T23:17:24.920Z,4.20
2017-09-19T23:19:52.562Z,3.80
2017-09-19T23:22:20.144Z,3.65
2017-09-19T23:24:47.694Z,3.87
2017-09-19T23:27:15.299Z,4.93
2017-09-19T23:29:43.627Z,4.18
2017-09-19T23:32:11.240Z,4.82
2017-09-19T23:34:39.620Z,4.93
2017-09-19T23:37:07.209Z,4.50
2017-09-19T23:39:35.569Z,3.92
2017-09-19T23:42:03.170Z,4.70
2017-09-19T23:44:30.770Z,5.25
2017-09-19T23:46:59.103Z,4.90
2017-09-19T23:49:26.707Z,5.15
2017-09-19T23:51:55.088Z,4.78
2017-09-19T23:54:23.417Z,4.87
2017-09-19T23:56:51.022Z,4.60
2017-09-19T23:59:19.357Z,4.90
